(°C)
19°
18°
18°
18°
18°
18°
17°
(°C)
20°
20°
19°
20°
20°
20°
19°
WSW
WSW
WSW
W
W
WNW
WNW
(km/h)
3-6
2-5
2-5
3-5
3-5
3-5
3-5
(mm)
0
0
0
0
0
0
0
(%)
15
10
6
5
5
4
4

Sonnenhöhe

/ -35.7°
sun-icon
UV 6
06:15
19:56
Abnehmender Mond (262°)
23:35
13:29

METAR für Wilmington Manor (KILG)

Zeit Bedingungen Temperatur/
Taupunkt
Wind Sichtweite Wetter Wolken Druck Änderung Roh
VFR 19.4°C / 17.2°C 230º 4kt >10km - Clear 1014 - KILG 180351Z 23004KT 10SM CLR 19/17 A2996 RMK AO2 SLP146 T01940172 $
VFR 20°C / 17.2°C 250º 4kt >10km - Few Clouds 11000ft 1014 - KILG 180251Z 25004KT 10SM FEW110 20/17 A2997 RMK AO2 SLP148 T02000172 50000 $
VFR 21.1°C / 17.8°C 230º 3kt >10km - Overcast 11000ft 1015 - KILG 180151Z 23003KT 10SM OVC110 21/18 A2998 RMK AO2 SLP153 T02110178 $
VFR 21.7°C / 16.1°C 260º 4kt >10km - Scattered Clouds 11000ft 1015 - KILG 180051Z 26004KT 10SM SCT110 22/16 A2998 RMK AO2 SLP150 T02170161 $
23.9°C / 15.6°C 230º 3kt - 1014 - KILG 172351Z 23003KT 24/16 A2997 RMK AO2 SLP147 60000 T02390156 10272 20189 RVRNO $
VFR 25.6°C / 16.1°C variable 0kt >10km - Clear 1014 - KILG 172251Z 00000KT 10SM CLR 26/16 A2995 RMK AO2 SLP142 T02560161 $
VFR 25°C / 17.8°C 330º 8kt >10km 0.13mm precipitation Clear 1014 - KILG 172151Z 33008KT 10SM CLR 25/18 A2996 RMK AO2 RAB2052E00 TSE05 SLP146 P0000 T02500178 $
VFR 24.4°C / 17.2°C 350º 6kt >10km 0.13mm precipitation Few Clouds 4100ft - KILG 172107Z 35006KT 10SM FEW041 24/17 A2996 RMK AO2 RAB2052E00 TSE05 P0000 T02440172
VFR 24.4°C / 17.2°C 340º 7kt >10km Thunderstorm Vertical Visibility of 0ft. 1014 - KILG 172051Z 34007KT 10SM TS FEW045 24/17 A2997 RMK AO2 TSB51 SLP147 60025 T02440172 56016
VFR 26.7°C / 16.7°C 300º 6kt >10km - Clear 1014 - KILG 171951Z 30006KT 10SM CLR 27/17 A2997 RMK AO2 LTG DSNT W SLP148 T02670167
VFR 23.3°C / 17.8°C 260º 3kt. Wind Shift present. >10km 6.35mm precipitation Scattered Clouds 10000ft 1015 - KILG 171851Z 26003KT 10SM SCT100 23/18 A2999 RMK AO2 WSHFT 1801 LTG DSNT W AND NW RAE21 TSE15 SLP155 P0025 T02330178
VFR 20.6°C / 15.6°C 240º 10kt. Wind Shift present. >10km Light Rain 6.35mm precipitation Scattered Clouds 4100ft
Broken Clouds 4800ft
Overcast 7000ft
- KILG 171815Z 24010KT 10SM -RA SCT041 BKN048 OVC070 21/16 A3000 RMK AO2 WSHFT 1801 LTG DSNT N AND W TSE15 P0025 T02060156
IFR 18.9°C / 16.7°C 300º 15kt. Wind Shift present. 2000m Heavy Thunderstorm Rain Mist 2.54mm precipitation Overcast 4500ft - KILG 171759Z 30015KT 1 1/4SM +TSRA BR OVC045 19/17 A3001 RMK AO2 WSHFT 1739 LTG DSNT SW AND W P0010 T01890167
IFR 20°C / 16.1°C 290º 17kt Gust 25kt 4000m Heavy Thunderstorm Rain 0.76mm precipitation Broken Clouds 4200ft
Overcast 5000ft
1016 - KILG 171751Z 29017G25KT 2 1/2SM +TSRA BKN042 OVC050 20/16 A3001 RMK AO2 LTG DSNT SW-N RAB38 TSB31 SLP163 P0003 60003 T02000161 10272 20200 55006
VFR 24.4°C / 16.1°C 260º 10kt Gust 15kt >10km Thunderstorm Vertical Visibility of 0ft. - KILG 171737Z 26010G15KT 10SM TS OVC047 24/16 A3001 RMK AO2 LTG DSNT SW TSB31 T02440161
VFR 25.6°C / 15°C 210º 6kt >10km - Scattered Clouds 4500ft
Broken Clouds 5000ft
Broken Clouds 11000ft
- KILG 171717Z 21006KT 10SM SCT045 BKN050 BKN110 26/15 A3001 RMK AO2 LTG DSNT SW T02560150
VFR 26.7°C / 16.1°C 210º 5kt >10km in the Vicinity Thunderstorm Vertical Visibility of 0ft. - KILG 171702Z 21005KT 10SM VCTS SCT044 27/16 A3001 RMK AO2 T02670161
VFR 26.1°C / 16.7°C 180º 5kt >10km - Clear 1016 - KILG 171651Z 18005KT 10SM CLR 26/17 A3001 RMK AO2 SLP162 T02610167
VFR 25°C / 16.7°C 330º 3kt >10km 0.13mm precipitation Scattered Clouds 3500ft
Broken Clouds 4500ft
Overcast 7000ft
1016 - KILG 171551Z 33003KT 10SM SCT035 BKN045 OVC070 25/17 A3002 RMK AO2 RAE1455 SLP166 P0000 T02500167
VFR 25.6°C / 16.7°C variable 6kt >10km Light Rain 0.13mm precipitation Few Clouds 2800ft
Scattered Clouds 3200ft
Broken Clouds 4200ft
1016 - KILG 171451Z VRB06KT 10SM -RA FEW028 SCT032 BKN042 26/17 A3003 RMK AO2 RAB45 SLP169 P0000 60000 T02560167 58001
VFR 25°C / 17.2°C 10º 4kt >10km - Clear 1017 - KILG 171351Z 01004KT 10SM CLR 25/17 A3003 RMK AO2 SLP170 T02500172
VFR 23.3°C / 16.7°C 50º 6kt >10km - Few Clouds 6000ft 1017 - KILG 171251Z 05006KT 10SM FEW060 23/17 A3004 RMK AO2 SLP171 T02330167
VFR 21.7°C / 15.6°C variable 0kt >10km - Clear 1017 - KILG 171151Z 00000KT 10SM CLR 22/16 A3004 RMK AO2 SLP170 T02170156 10217 20156 53008
VFR 18.9°C / 16.1°C variable 0kt >10km - Scattered Clouds 2600ft
Broken Clouds 8500ft
- KILG 171114Z 00000KT 10SM SCT026 BKN085 19/16 A3003 RMK AO2 T01890161

VFR

19.4°C / 17.2°C

[Mehr]
Wind 230º 4kt
Sichtweite >10km
Wetter -
Wolken Clear
Druck 1014
Änderung -
Roh KILG 180351Z 23004KT 10SM CLR 19/17 A2996 RMK AO2 SLP146 T01940172 $

VFR

20°C / 17.2°C

[Mehr]
Wind 250º 4kt
Sichtweite >10km
Wetter -
Wolken Few Clouds 11000ft
Druck 1014
Änderung -
Roh KILG 180251Z 25004KT 10SM FEW110 20/17 A2997 RMK AO2 SLP148 T02000172 50000 $

VFR

21.1°C / 17.8°C

[Mehr]
Wind 230º 3kt
Sichtweite >10km
Wetter -
Wolken Overcast 11000ft
Druck 1015
Änderung -
Roh KILG 180151Z 23003KT 10SM OVC110 21/18 A2998 RMK AO2 SLP153 T02110178 $

VFR

21.7°C / 16.1°C

[Mehr]
Wind 260º 4kt
Sichtweite >10km
Wetter -
Wolken Scattered Clouds 11000ft
Druck 1015
Änderung -
Roh KILG 180051Z 26004KT 10SM SCT110 22/16 A2998 RMK AO2 SLP150 T02170161 $

23.9°C / 15.6°C

[Mehr]
Wind 230º 3kt
Sichtweite
Wetter -
Wolken
Druck 1014
Änderung -
Roh KILG 172351Z 23003KT 24/16 A2997 RMK AO2 SLP147 60000 T02390156 10272 20189 RVRNO $

VFR

25.6°C / 16.1°C

[Mehr]
Wind variable 0kt
Sichtweite >10km
Wetter -
Wolken Clear
Druck 1014
Änderung -
Roh KILG 172251Z 00000KT 10SM CLR 26/16 A2995 RMK AO2 SLP142 T02560161 $

VFR

25°C / 17.8°C

[Mehr]
Wind 330º 8kt
Sichtweite >10km
Wetter 0.13mm precipitation
Wolken Clear
Druck 1014
Änderung -
Roh KILG 172151Z 33008KT 10SM CLR 25/18 A2996 RMK AO2 RAB2052E00 TSE05 SLP146 P0000 T02500178 $

VFR

24.4°C / 17.2°C

[Mehr]
Wind 350º 6kt
Sichtweite >10km
Wetter 0.13mm precipitation
Wolken Few Clouds 4100ft
Druck
Änderung -
Roh KILG 172107Z 35006KT 10SM FEW041 24/17 A2996 RMK AO2 RAB2052E00 TSE05 P0000 T02440172

VFR

24.4°C / 17.2°C

[Mehr]
Wind 340º 7kt
Sichtweite >10km
Wetter Thunderstorm
Wolken Vertical Visibility of 0ft.
Druck 1014
Änderung -
Roh KILG 172051Z 34007KT 10SM TS FEW045 24/17 A2997 RMK AO2 TSB51 SLP147 60025 T02440172 56016

VFR

26.7°C / 16.7°C

[Mehr]
Wind 300º 6kt
Sichtweite >10km
Wetter -
Wolken Clear
Druck 1014
Änderung -
Roh KILG 171951Z 30006KT 10SM CLR 27/17 A2997 RMK AO2 LTG DSNT W SLP148 T02670167

VFR

23.3°C / 17.8°C

[Mehr]
Wind 260º 3kt. Wind Shift present.
Sichtweite >10km
Wetter 6.35mm precipitation
Wolken Scattered Clouds 10000ft
Druck 1015
Änderung -
Roh KILG 171851Z 26003KT 10SM SCT100 23/18 A2999 RMK AO2 WSHFT 1801 LTG DSNT W AND NW RAE21 TSE15 SLP155 P0025 T02330178

VFR

20.6°C / 15.6°C

[Mehr]
Wind 240º 10kt. Wind Shift present.
Sichtweite >10km
Wetter Light Rain 6.35mm precipitation
Wolken Scattered Clouds 4100ft
Broken Clouds 4800ft
Overcast 7000ft
Druck
Änderung -
Roh KILG 171815Z 24010KT 10SM -RA SCT041 BKN048 OVC070 21/16 A3000 RMK AO2 WSHFT 1801 LTG DSNT N AND W TSE15 P0025 T02060156

IFR

18.9°C / 16.7°C

[Mehr]
Wind 300º 15kt. Wind Shift present.
Sichtweite 2000m
Wetter Heavy Thunderstorm Rain Mist 2.54mm precipitation
Wolken Overcast 4500ft
Druck
Änderung -
Roh KILG 171759Z 30015KT 1 1/4SM +TSRA BR OVC045 19/17 A3001 RMK AO2 WSHFT 1739 LTG DSNT SW AND W P0010 T01890167

IFR

20°C / 16.1°C

[Mehr]
Wind 290º 17kt Gust 25kt
Sichtweite 4000m
Wetter Heavy Thunderstorm Rain 0.76mm precipitation
Wolken Broken Clouds 4200ft
Overcast 5000ft
Druck 1016
Änderung -
Roh KILG 171751Z 29017G25KT 2 1/2SM +TSRA BKN042 OVC050 20/16 A3001 RMK AO2 LTG DSNT SW-N RAB38 TSB31 SLP163 P0003 60003 T02000161 10272 20200 55006

VFR

24.4°C / 16.1°C

[Mehr]
Wind 260º 10kt Gust 15kt
Sichtweite >10km
Wetter Thunderstorm
Wolken Vertical Visibility of 0ft.
Druck
Änderung -
Roh KILG 171737Z 26010G15KT 10SM TS OVC047 24/16 A3001 RMK AO2 LTG DSNT SW TSB31 T02440161

VFR

25.6°C / 15°C

[Mehr]
Wind 210º 6kt
Sichtweite >10km
Wetter -
Wolken Scattered Clouds 4500ft
Broken Clouds 5000ft
Broken Clouds 11000ft
Druck
Änderung -
Roh KILG 171717Z 21006KT 10SM SCT045 BKN050 BKN110 26/15 A3001 RMK AO2 LTG DSNT SW T02560150

VFR

26.7°C / 16.1°C

[Mehr]
Wind 210º 5kt
Sichtweite >10km
Wetter in the Vicinity Thunderstorm
Wolken Vertical Visibility of 0ft.
Druck
Änderung -
Roh KILG 171702Z 21005KT 10SM VCTS SCT044 27/16 A3001 RMK AO2 T02670161

VFR

26.1°C / 16.7°C

[Mehr]
Wind 180º 5kt
Sichtweite >10km
Wetter -
Wolken Clear
Druck 1016
Änderung -
Roh KILG 171651Z 18005KT 10SM CLR 26/17 A3001 RMK AO2 SLP162 T02610167

VFR

25°C / 16.7°C

[Mehr]
Wind 330º 3kt
Sichtweite >10km
Wetter 0.13mm precipitation
Wolken Scattered Clouds 3500ft
Broken Clouds 4500ft
Overcast 7000ft
Druck 1016
Änderung -
Roh KILG 171551Z 33003KT 10SM SCT035 BKN045 OVC070 25/17 A3002 RMK AO2 RAE1455 SLP166 P0000 T02500167

VFR

25.6°C / 16.7°C

[Mehr]
Wind variable 6kt
Sichtweite >10km
Wetter Light Rain 0.13mm precipitation
Wolken Few Clouds 2800ft
Scattered Clouds 3200ft
Broken Clouds 4200ft
Druck 1016
Änderung -
Roh KILG 171451Z VRB06KT 10SM -RA FEW028 SCT032 BKN042 26/17 A3003 RMK AO2 RAB45 SLP169 P0000 60000 T02560167 58001

VFR

25°C / 17.2°C

[Mehr]
Wind 10º 4kt
Sichtweite >10km
Wetter -
Wolken Clear
Druck 1017
Änderung -
Roh KILG 171351Z 01004KT 10SM CLR 25/17 A3003 RMK AO2 SLP170 T02500172

VFR

23.3°C / 16.7°C

[Mehr]
Wind 50º 6kt
Sichtweite >10km
Wetter -
Wolken Few Clouds 6000ft
Druck 1017
Änderung -
Roh KILG 171251Z 05006KT 10SM FEW060 23/17 A3004 RMK AO2 SLP171 T02330167

VFR

21.7°C / 15.6°C

[Mehr]
Wind variable 0kt
Sichtweite >10km
Wetter -
Wolken Clear
Druck 1017
Änderung -
Roh KILG 171151Z 00000KT 10SM CLR 22/16 A3004 RMK AO2 SLP170 T02170156 10217 20156 53008

VFR

18.9°C / 16.1°C

[Mehr]
Wind variable 0kt
Sichtweite >10km
Wetter -
Wolken Scattered Clouds 2600ft
Broken Clouds 8500ft
Druck
Änderung -
Roh KILG 171114Z 00000KT 10SM SCT026 BKN085 19/16 A3003 RMK AO2 T01890161

TAF für Wilmington Manor (KILG)

From till


From till Wind variable 4kt. Visibility 10km or more. Scattered Clouds 20000ft.
From till Wind 310º 5kt. Visibility 10km or more. Scattered Clouds 25000ft.
From till Wind 280º 10kt. Visibility 10km or more. Few Clouds 5000ft.
From till Wind variable 4kt. Visibility 10km or more. Few Clouds 25000ft.

Roh: KILG 172320Z 1800/1824 VRB04KT P6SM SCT200 FM181200 31005KT P6SM SCT250 FM181500 28010KT P6SM FEW050 FM182300 VRB04KT P6SM FEW250

Radar- und Niederschlags-Nowcast für Wilmington Manor

Nieselregen
Leicht
Moderat
Stark
Sehr schwer
Hagel

Die Ortsmarkierung zeigt auf Wilmington Manor. Diese Animation zeigt das Niederschlagsradar der letzten Stunde, sowie eine 1h Vorhersage. Nieselregen und leichter Schneefall können für das Radar unsichtbar sein. Die Niederschlagsintensität ist farbcodiert von Hellblau bis Orange.

Aktuelle Satellitenbilder für Wilmington Manor, Vereinigte Staaten

Die Standortmarkierung ist platziert auf Wilmington Manor. [Mehr]

Das Echtzeit-Satellitenbild kombiniert sichtbares Licht während des Tages mit Infrarotstrahlung während der Nacht. Nachts ist das Bild nicht dunkel, da Infrarotstrahlung Temperaturunterschiede erkennen kann. Leider sind niedrige Wolken und Nebel nur schwer von den Bodentemperaturen zu unterscheiden und können daher nachts fast unsichtbar sein. Meteosat-Satellitenbilder für Europa werden alle 5 Minuten in Echtzeit aktualisiert. Die Bilder GOES-16 / GOES-17 (Nord- und Südamerika) und Himawari (Asien) werden alle 10 Minuten aktualisiert.

Zum Anfang